Latest Weather Observations for Mareeba

IDQ60801

Issued at 10:32 pm EST Friday 6 March 2015 (issued every 30 minutes, with the page automatically refreshed every 10 minutes)

About weather observations | Map of weather stations | Latest weather observations for QLD | Other Formats
Station Details ID: 031210 Name: MAREEBA AIRPORT Lat: -17.07 Lon: 145.43 Height: 471.93 m
Data from the previous 72 hours. | See also: Recent months at Mareeba
Date/Time
EST
Temp
°C
App
Temp
°C
Dew
Point
Rel
Hum
%
Delta-T
°C
Wind Press
QNH
hPa
Press
MSL
hPa
Rain
since 9 am
mm
Dir
 
Spd
km/h
Gust
km/h
Spd
kts
Gust
kts
06/10:30pm 24.1 28.8 22.0 88 1.4 CALM 0 0 0 0 1009.9 - 0.0
06/10:00pm 24.2 28.5 21.9 87 1.6 NNW 2 7 1 4 1009.8 - 0.0
06/09:30pm 24.4 29.1 21.9 86 1.7 CALM 0 0 0 0 1009.7 - 0.0
06/09:00pm 24.4 28.6 21.7 85 1.8 N 2 7 1 4 1009.4 1006.4 0.0
06/08:30pm 24.5 27.6 21.4 83 2.1 N 7 11 4 6 1008.8 - 0.0
06/08:00pm 25.0 27.7 21.3 80 2.5 N 9 13 5 7 1008.3 - 0.0
06/07:30pm 25.3 28.3 21.2 78 2.8 N 7 9 4 5 1007.7 - 0.0
06/07:00pm 25.9 28.8 21.1 75 3.2 N 7 11 4 6 1007.1 - 0.0
06/06:30pm 26.9 29.6 21.4 72 3.7 N 9 13 5 7 1006.7 - 0.0
06/06:00pm 30.2 29.7 13.9 37 10.0 E 9 13 5 7 1006.2 1003.2 0.0
06/05:30pm 31.3 30.2 15.3 38 10.1 ESE 15 20 8 11 1005.8 - 0.0
06/05:00pm 31.9 30.0 14.1 34 11.0 SE 17 24 9 13 1005.8 - 0.0
06/04:30pm 32.7 32.0 16.5 37 10.4 E 15 22 8 12 1005.6 - 0.0
06/04:00pm 33.4 31.3 13.5 30 12.3 ESE 17 22 9 12 1005.8 - 0.0
06/03:30pm 33.7 32.4 14.7 32 11.9 E 15 20 8 11 1005.9 - 0.0
06/03:00pm 33.9 31.7 14.4 31 12.2 ESE 19 26 10 14 1005.9 1002.9 0.0
06/02:30pm 33.0 30.4 13.1 30 12.2 ESE 19 28 10 15 1006.1 - 0.0
06/02:00pm 33.6 32.0 16.0 34 11.3 S 19 26 10 14 1006.6 - 0.0
06/01:30pm 33.0 31.4 15.9 35 10.9 SSE 19 30 10 16 1007.0 - 0.0
06/01:00pm 32.7 31.7 16.5 37 10.4 SE 17 28 9 15 1007.5 - 0.0
06/12:30pm 31.8 33.2 17.7 43 9.2 S 7 15 4 8 1008.0 - 0.0
06/12:00pm 30.7 32.5 18.8 49 7.9 SE 7 11 4 6 1008.3 1005.3 0.0
06/11:30am 29.5 33.4 20.4 58 6.1 CALM 0 7 0 4 1008.9 - 0.0
06/11:00am 28.4 31.3 21.7 67 4.6 NW 9 13 5 7 1009.2 - 0.0
06/10:30am 27.8 30.9 22.1 71 3.9 WNW 9 17 5 9 1009.7 - 0.0
06/10:00am 26.5 29.3 21.5 74 3.4 W 9 15 5 8 1010.0 - 0.0
06/09:30am 25.9 28.4 21.8 78 2.8 WNW 11 15 6 8 1010.1 - 0.0
06/09:00am 25.8 28.7 21.0 75 3.2 WSW 7 11 4 6 1010.1 1007.1 1.0
06/08:30am 25.1 28.8 21.4 80 2.5 W 4 7 2 4 1010.2 - 1.0
06/08:00am 24.1 28.6 21.6 86 1.7 CALM 0 0 0 0 1010.3 - 1.0
06/07:30am 22.7 27.0 21.2 91 1.0 CALM 0 0 0 0 1010.2 - 1.0
06/07:00am 21.8 25.9 20.8 94 0.7 CALM 0 0 0 0 1009.9 - 1.0
06/06:30am 21.0 24.6 19.8 93 0.8 CALM 0 0 0 0 1009.6 - 1.0
06/06:00am 21.0 24.6 19.8 93 0.8 CALM 0 0 0 0 1009.6 1006.6 1.0
06/05:30am 21.3 24.0 20.3 94 0.7 SSE 6 7 3 4 1009.3 - 1.0
06/05:00am 21.3 23.5 20.3 94 0.7 S 9 11 5 6 1009.1 - 1.0
06/04:30am 21.5 25.1 20.5 94 0.7 ESE 2 6 1 3 1009.0 - 1.0
06/04:00am 21.5 24.3 20.5 94 0.7 S 6 9 3 5 1008.8 - 1.0
06/03:30am 21.6 24.8 20.6 94 0.7 S 4 7 2 4 1008.8 - 1.0
06/03:00am 21.7 25.7 20.5 93 0.8 CALM 0 0 0 0 1009.0 1006.0 1.0
06/02:30am 21.8 25.8 20.6 93 0.8 CALM 0 0 0 0 1009.3 - 1.0
06/02:00am 22.4 26.9 21.6 95 0.5 CALM 0 0 0 0 1009.5 - 1.0
06/01:30am 22.0 26.0 20.6 92 0.9 CALM 0 0 0 0 1009.8 - 1.0
06/01:00am 22.2 26.3 20.8 92 0.9 CALM 0 0 0 0 1010.2 - 1.0
06/12:30am 22.4 26.7 21.2 93 0.8 CALM 0 0 0 0 1010.6 - 1.0
06/12:00am 22.6 26.9 21.1 91 1.0 CALM 0 0 0 0 1010.7 1007.7 1.0
 
Date/Time
EST
Temp
°C
App
Temp
°C
Dew
Point
Rel
Hum
%
Delta-T
°C
Wind Press
QNH
hPa
Press
MSL
hPa
Rain
since 9 am
mm
Dir
 
Spd
km/h
Gust
km/h
Spd
kts
Gust
kts
05/11:30pm 22.7 26.9 21.0 90 1.1 CALM 0 0 0 0 1011.2 - 1.0
05/11:00pm 23.1 26.4 21.4 90 1.1 W 6 7 3 4 1011.5 - 1.0
05/10:30pm 23.3 27.7 21.4 89 1.3 CALM 0 0 0 0 1011.7 - 1.0
05/10:00pm 23.7 28.1 21.4 87 1.5 CALM 0 4 0 2 1011.2 - 1.0
05/09:30pm 23.9 27.1 21.6 87 1.5 WNW 7 11 4 6 1011.1 - 1.0
05/09:00pm 24.3 27.1 21.6 85 1.8 WNW 9 11 5 6 1010.7 1007.7 1.0
05/08:30pm 24.3 28.6 21.2 83 2.1 CALM 0 0 0 0 1010.5 - 1.0
05/08:00pm 24.4 28.4 21.3 83 2.1 SW 2 7 1 4 1010.1 - 1.0
05/07:30pm 24.9 28.6 21.4 81 2.4 W 4 7 2 4 1009.8 - 1.0
05/07:00pm 25.5 29.5 21.4 78 2.8 NNE 2 7 1 4 1009.5 - 1.0
05/06:30pm 26.5 29.7 21.3 73 3.5 N 6 9 3 5 1009.4 - 1.0
05/06:00pm 27.6 30.2 21.2 68 4.3 NNE 9 15 5 8 1009.1 1006.1 1.0
05/05:30pm 29.1 32.2 21.1 62 5.4 N 6 9 3 5 1008.8 - 1.0
05/05:00pm 29.3 31.8 21.0 61 5.6 NNE 9 13 5 7 1008.3 - 1.0
05/04:30pm 29.1 31.8 20.3 59 5.9 NNE 6 13 3 7 1007.9 - 1.0
05/04:00pm 30.2 33.3 21.0 58 6.2 NNW 6 9 3 5 1008.0 - 0.8
05/03:30pm 28.9 32.4 22.9 70 4.2 W 9 11 5 6 1008.5 - 0.8
05/03:00pm 25.8 30.0 21.0 75 3.2 CALM 0 13 0 7 1008.9 1005.8 0.8
05/02:30pm 26.0 26.1 20.3 71 3.8 N 20 28 11 15 1009.3 - 0.8
05/02:00pm 30.6 33.5 19.0 50 7.7 E 2 11 1 6 1009.5 - 0.2
05/01:30pm 30.4 32.4 18.8 50 7.6 E 6 13 3 7 1010.0 - 0.2
05/01:00pm 29.9 31.3 18.7 51 7.4 S 9 13 5 7 1010.7 - 0.2
05/12:30pm 30.5 31.6 20.4 54 6.8 SE 15 22 8 12 1011.3 - 0.2
05/12:00pm 29.7 32.0 19.4 54 6.8 S 6 20 3 11 1011.8 1008.8 0.2
05/11:30am 29.0 31.3 19.9 58 6.1 NNE 7 15 4 8 1012.3 - 0.2
05/11:00am 28.3 29.8 19.8 60 5.6 ESE 11 19 6 10 1012.7 - 0.2
05/10:30am 28.2 29.1 20.0 61 5.5 ESE 15 22 8 12 1012.9 - 0.2
05/10:00am 27.4 27.7 19.7 63 5.1 ESE 17 24 9 13 1013.3 - 0.2
05/09:30am 26.8 27.1 20.4 68 4.3 SE 19 26 10 14 1013.4 - 0.2
05/09:00am 26.3 26.8 20.8 71 3.7 ESE 19 24 10 13 1013.2 1010.2 0.8
05/08:30am 25.1 26.9 21.2 79 2.6 SSE 13 20 7 11 1013.1 - 0.8
05/08:00am 22.5 26.4 20.4 88 1.4 CALM 0 0 0 0 1012.8 - 0.8
05/07:30am 22.5 24.9 20.0 86 1.6 ESE 7 9 4 5 1012.6 - 0.8
05/07:00am 21.3 23.7 20.1 93 0.8 ENE 7 9 4 5 1012.3 - 0.8
05/06:30am 20.7 24.1 19.4 92 0.8 CALM 0 0 0 0 1011.9 - 0.8
05/06:00am 20.8 24.0 18.9 89 1.2 CALM 0 0 0 0 1011.7 1008.7 0.8
05/05:30am 21.8 24.2 19.7 88 1.4 SSE 6 7 3 4 1011.3 - 0.8
05/05:00am 22.1 24.1 20.0 88 1.4 SE 9 11 5 6 1011.2 - 0.8
05/04:30am 22.1 23.3 20.0 88 1.4 SSE 13 17 7 9 1011.0 - 0.8
05/04:00am 22.0 23.7 20.1 89 1.2 SE 11 13 6 7 1010.9 - 0.8
05/03:30am 21.6 23.2 19.9 90 1.1 S 11 15 6 8 1011.0 - 0.8
05/03:00am 21.3 22.7 19.6 90 1.1 ESE 11 13 6 7 1011.1 1008.1 0.8
05/02:30am 21.9 23.5 20.0 89 1.2 SSE 11 13 6 7 1011.5 - 0.8
05/02:00am 22.0 24.0 19.9 88 1.4 S 9 13 5 7 1011.7 - 0.8
05/01:30am 22.1 23.8 20.2 89 1.2 S 11 15 6 8 1011.9 - 0.8
05/01:00am 22.1 24.2 20.2 89 1.2 SE 9 15 5 8 1012.0 - 0.8
05/12:30am 21.8 24.1 19.9 89 1.2 S 7 9 4 5 1012.1 - 0.8
05/12:00am 21.7 23.7 20.0 90 1.1 S 9 13 5 7 1012.3 1009.3 0.8
 
Date/Time
EST
Temp
°C
App
Temp
°C
Dew
Point
Rel
Hum
%
Delta-T
°C
Wind Press
QNH
hPa
Press
MSL
hPa
Rain
since 9 am
mm
Dir
 
Spd
km/h
Gust
km/h
Spd
kts
Gust
kts
04/11:30pm 21.4 23.6 19.7 90 1.1 S 7 9 4 5 1012.9 - 0.8
04/11:00pm 21.4 24.4 19.3 88 1.4 SSE 2 9 1 5 1013.2 - 0.8
04/10:30pm 22.2 25.0 19.7 86 1.6 SE 4 7 2 4 1013.2 - 0.8
04/10:00pm 22.0 23.9 19.7 87 1.5 S 9 15 5 8 1013.2 - 0.8
04/09:30pm 22.2 23.7 19.7 86 1.6 S 11 17 6 9 1013.3 - 0.8
04/09:00pm 22.0 23.0 19.5 86 1.6 S 13 17 7 9 1012.8 1009.9 0.8
04/08:30pm 22.2 23.3 19.6 85 1.7 S 13 22 7 12 1012.5 - 0.8
04/08:00pm 22.7 23.7 20.2 86 1.6 SSE 15 20 8 11 1012.3 - 0.8
04/07:30pm 22.5 23.0 20.0 86 1.6 SSE 17 22 9 12 1012.2 - 0.8
04/07:00pm 22.4 23.2 19.9 86 1.6 S 15 19 8 10 1011.8 - 0.8
04/06:30pm 22.5 23.7 19.9 85 1.7 SSE 13 15 7 8 1011.9 - 0.8
04/06:00pm 22.6 23.9 20.1 86 1.6 SSE 13 17 7 9 1011.6 1008.6 0.8
04/05:30pm 23.2 24.5 20.2 83 2.0 SSE 13 17 7 9 1011.6 - 0.4
04/05:00pm 24.9 26.8 20.6 77 2.9 SSE 11 15 6 8 1011.1 - 0.2
04/04:30pm 24.8 27.7 20.7 78 2.7 SSE 6 9 3 5 1010.9 - 0.2
04/04:00pm 24.4 26.0 20.7 80 2.5 SE 13 17 7 9 1010.9 - 0.2
04/03:30pm 23.7 24.5 20.6 83 2.1 SSE 17 22 9 12 1011.3 - 0.2
04/03:00pm 23.4 23.2 19.8 80 2.4 SSE 20 26 11 14 1011.2 1008.2 0.2
04/02:30pm 28.1 27.9 17.6 53 6.8 E 15 22 8 12 1010.9 - 0.0
04/02:00pm 28.7 29.5 18.2 53 6.8 ENE 11 20 6 11 1010.9 - 0.0
04/01:30pm 27.3 29.2 20.6 67 4.5 S 11 17 6 9 1011.4 - 0.0
04/01:00pm 26.5 28.1 20.8 71 3.8 S 13 20 7 11 1012.0 - 0.0
04/12:30pm 25.5 27.3 20.3 73 3.5 S 11 17 6 9 1012.5 - 0.0
04/12:00pm 25.9 25.6 19.5 68 4.2 SSE 20 24 11 13 1012.8 1009.9 0.0
04/11:30am 25.4 25.1 20.4 74 3.3 SSE 22 32 12 17 1013.1 - 0.0
04/11:00am 25.1 24.5 20.4 75 3.1 SSE 24 35 13 19 1013.2 - 0.0
04/10:30am 25.7 26.6 20.9 75 3.2 SSE 17 22 9 12 1012.8 - 0.0
04/10:00am 25.3 25.4 20.3 74 3.3 SE 20 32 11 17 1013.2 - 0.0
04/09:30am 26.6 26.5 20.0 67 4.4 SE 20 30 11 16 1012.7 - 0.0
04/09:00am 26.3 26.5 19.4 66 4.5 SE 17 26 9 14 1012.6 1009.6 0.0
04/08:30am 25.1 25.7 19.5 71 3.7 SE 15 20 8 11 1012.6 - 0.0
04/08:00am 23.5 24.7 20.0 81 2.3 SE 13 15 7 8 1012.4 - 0.0
04/07:30am 22.8 25.2 20.1 85 1.8 SSE 7 11 4 6 1012.2 - 0.0
04/07:00am 21.7 23.5 19.6 88 1.4 S 9 13 5 7 1011.9 - 0.0
04/06:30am 21.5 23.1 19.2 87 1.5 SSE 9 11 5 6 1011.7 - 0.0
04/06:00am 21.5 23.8 19.4 88 1.4 SSW 6 7 3 4 1011.6 1008.6 0.0
04/05:30am 21.3 23.3 19.2 88 1.4 SSE 7 11 4 6 1011.4 - 0.0
04/05:00am 20.3 22.4 18.1 87 1.4 WSW 4 7 2 4 1011.2 - 0.0
04/04:30am 21.1 23.2 18.9 87 1.4 S 6 9 3 5 1011.0 - 0.0
04/04:00am 21.0 22.5 18.9 88 1.3 SSE 9 13 5 7 1011.0 - 0.0
04/03:30am 20.6 22.0 18.7 89 1.2 S 9 13 5 7 1011.1 - 0.0
04/03:00am 20.6 22.3 18.5 88 1.3 S 7 11 4 6 1011.4 1008.4 0.0
04/02:30am 20.6 21.5 18.5 88 1.3 S 11 13 6 7 1011.6 - 0.0
04/02:00am 20.3 21.9 18.2 88 1.3 SSW 7 9 4 5 1012.0 - 0.0
04/01:30am 20.4 21.9 18.0 86 1.5 S 7 9 4 5 1012.4 - 0.0
04/01:00am 21.4 23.2 18.2 82 2.0 SE 6 9 3 5 1012.9 - 0.0
04/12:30am 21.4 23.1 18.6 84 1.8 ESE 7 11 4 6 1013.4 - 0.0
04/12:00am 21.6 23.4 18.8 84 1.8 SE 7 13 4 7 1013.7 1010.7 0.0
 
Date/Time
EST
Temp
°C
App
Temp
°C
Dew
Point
Rel
Hum
%
Delta-T
°C
Wind Press
QNH
hPa
Press
MSL
hPa
Rain
since 9 am
mm
Dir
 
Spd
km/h
Gust
km/h
Spd
kts
Gust
kts
03/11:30pm 21.1 22.4 18.5 85 1.7 S 9 11 5 6 1013.7 - 0.0
03/11:00pm 21.2 23.6 18.8 86 1.5 S 4 7 2 4 1013.8 - 0.0

Other Formats:

Comma delimited format used in spreadsheet applications
http://www.bom.gov.au/fwo/IDQ60801/IDQ60801.95286.axf

JavaScript Object Notation format (JSON) in row-major order
http://www.bom.gov.au/fwo/IDQ60801/IDQ60801.95286.json